Becket Corners, Massachusetts
Current Conditions -  °F | °C
As of 10:54 PM on Sunday 23 Nov 2014 (Local Time) from KPSF Reporting Station
Scattered Clouds Scattered Clouds  
Wind Chill: 37°   Ceiling: Unl
Heat Index: 37°   Visibility: 10mi
Dew Point: 34°   Wind: 3mph
Humidity: 89%   Direction: 20°NNE
Pressure: 30.02"   Gusts: NA
Location:  42.3623°N, 73.1505°W
Report Text: KPSF 240354Z AUTO 02003KT 10SM SCT027 03/01 A3002 RMK AO2 SLP166 T00280011
Loading
Personal Weather Stations






























Interactive Weather Map New forecast layout! Learn more

10-Day Weather Forecast

Advertisements
Track Severe Weather on mobile